Terminal Aerodrome Forecast
Issued by NWS Missoula, MT

Home | Current Version | Previous Version | Text Only | Print | Product List | Glossary On
Versions: 1 2 3 4 5 6 7 8 9 10 11 12 13
579
FTUS45 KMSO 251722
TAFBTM
TAF
KBTM 251722Z 2518/2618 14005KT P6SM SKC
     FM252100 31006KT P6SM VCSH SCT090
     FM252300 31008KT P6SM VCTS BKN070CB
     FM260200 33008KT P6SM VCSH SCT080
     FM260400 15005KT P6SM SKC=

USA.gov is the U.S. government's official web portal to all federal, state and local government web resources and services.